Terminal Aerodrome Forecast
Issued by NWS Charleston, WV

Current Version | Previous Version | Text Only | Print | Product List | Glossary Off
Versions: 1 2 3 4 5 6 7 8 9 10 11 12 13 14 15 16 17 18 19 20 21

000
FTUS41 KRLX 240500
TAFHTS
TAF
KHTS 240525Z 2406/2506 VRB03KT 5SM SHRA BR OVC035
     FM240800 VRB03KT 4SM SHRA BR BKN025
     FM241200 VRB03KT P6SM BKN035
     FM241800 17011G19KT 3SM SHRA BR VCTS BKN040CB
     FM242100 19012G23KT 6SM SHRA BR BKN035
     FM242300 23018G31KT P6SM BKN025=

USA.gov is the U.S. government's official web portal to all federal, state and local government web resources and services.